sensor_id;sensor_type;location;lat;lon;timestamp;temperature;humidity
20654;DHT22;21083;50.898;4.902;2023-02-25T00:00:32;5.30;99.90
20654;DHT22;21083;50.898;4.902;2023-02-25T00:02:59;5.20;99.90
20654;DHT22;21083;50.898;4.902;2023-02-25T00:05:26;5.10;99.90
20654;DHT22;21083;50.898;4.902;2023-02-25T00:07:56;5.10;99.90
20654;DHT22;21083;50.898;4.902;2023-02-25T00:10:23;5.00;99.90
20654;DHT22;21083;50.898;4.902;2023-02-25T00:12:50;4.90;99.90
20654;DHT22;21083;50.898;4.902;2023-02-25T00:15:18;5.10;99.90
20654;DHT22;21083;50.898;4.902;2023-02-25T00:17:45;5.10;99.90
20654;DHT22;21083;50.898;4.902;2023-02-25T00:20:15;5.10;99.90
20654;DHT22;21083;50.898;4.902;2023-02-25T00:22:42;5.10;99.90
20654;DHT22;21083;50.898;4.902;2023-02-25T00:25:10;5.10;99.90
20654;DHT22;21083;50.898;4.902;2023-02-25T00:27:37;5.00;99.90
20654;DHT22;21083;50.898;4.902;2023-02-25T00:30:05;5.00;99.90
20654;DHT22;21083;50.898;4.902;2023-02-25T00:32:32;5.00;99.90
20654;DHT22;21083;50.898;4.902;2023-02-25T00:34:59;5.10;99.90
20654;DHT22;21083;50.898;4.902;2023-02-25T00:37:26;5.20;99.90
20654;DHT22;21083;50.898;4.902;2023-02-25T00:39:53;5.10;99.90
20654;DHT22;21083;50.898;4.902;2023-02-25T00:42:21;5.10;99.90
20654;DHT22;21083;50.898;4.902;2023-02-25T00:44:49;5.10;99.90
20654;DHT22;21083;50.898;4.902;2023-02-25T00:47:17;5.00;99.90
20654;DHT22;21083;50.898;4.902;2023-02-25T00:49:45;4.90;99.90
20654;DHT22;21083;50.898;4.902;2023-02-25T00:52:13;5.00;99.90
20654;DHT22;21083;50.898;4.902;2023-02-25T00:54:40;5.20;99.90
20654;DHT22;21083;50.898;4.902;2023-02-25T00:57:07;4.80;99.90
20654;DHT22;21083;50.898;4.902;2023-02-25T00:59:35;4.80;99.90
20654;DHT22;21083;50.898;4.902;2023-02-25T01:02:02;4.80;99.90
20654;DHT22;21083;50.898;4.902;2023-02-25T01:04:29;4.70;99.90
20654;DHT22;21083;50.898;4.902;2023-02-25T01:06:56;4.90;99.90
20654;DHT22;21083;50.898;4.902;2023-02-25T01:09:24;4.90;99.90
20654;DHT22;21083;50.898;4.902;2023-02-25T01:11:51;4.90;99.90
20654;DHT22;21083;50.898;4.902;2023-02-25T01:14:20;4.80;99.90
20654;DHT22;21083;50.898;4.902;2023-02-25T01:16:50;4.50;99.90
20654;DHT22;21083;50.898;4.902;2023-02-25T01:19:20;4.60;99.90
20654;DHT22;21083;50.898;4.902;2023-02-25T01:21:49;4.60;99.90
20654;DHT22;21083;50.898;4.902;2023-02-25T01:24:17;4.70;99.90
20654;DHT22;21083;50.898;4.902;2023-02-25T01:26:46;4.70;99.90
20654;DHT22;21083;50.898;4.902;2023-02-25T01:29:15;4.60;99.90
20654;DHT22;21083;50.898;4.902;2023-02-25T01:31:43;4.60;99.90
20654;DHT22;21083;50.898;4.902;2023-02-25T01:34:13;4.50;99.90
20654;DHT22;21083;50.898;4.902;2023-02-25T01:36:40;4.30;99.90
20654;DHT22;21083;50.898;4.902;2023-02-25T01:39:08;4.40;99.90
20654;DHT22;21083;50.898;4.902;2023-02-25T01:41:37;4.30;99.90
20654;DHT22;21083;50.898;4.902;2023-02-25T01:44:07;4.40;99.90
20654;DHT22;21083;50.898;4.902;2023-02-25T01:46:35;4.40;99.90
20654;DHT22;21083;50.898;4.902;2023-02-25T01:49:05;4.40;99.90
20654;DHT22;21083;50.898;4.902;2023-02-25T01:51:36;4.30;99.90
20654;DHT22;21083;50.898;4.902;2023-02-25T01:54:07;4.30;99.90
20654;DHT22;21083;50.898;4.902;2023-02-25T01:56:37;4.20;99.90
20654;DHT22;21083;50.898;4.902;2023-02-25T01:59:05;4.40;99.90
20654;DHT22;21083;50.898;4.902;2023-02-25T02:01:33;4.50;99.90
20654;DHT22;21083;50.898;4.902;2023-02-25T02:04:03;4.50;99.90
20654;DHT22;21083;50.898;4.902;2023-02-25T02:06:34;4.40;99.90
20654;DHT22;21083;50.898;4.902;2023-02-25T02:09:06;4.50;99.90
20654;DHT22;21083;50.898;4.902;2023-02-25T02:11:34;4.50;99.90
20654;DHT22;21083;50.898;4.902;2023-02-25T02:14:02;4.50;99.90
20654;DHT22;21083;50.898;4.902;2023-02-25T02:19:35;4.50;99.90
20654;DHT22;21083;50.898;4.902;2023-02-25T02:22:09;4.50;99.90
20654;DHT22;21083;50.898;4.902;2023-02-25T02:25:02;4.50;99.90
20654;DHT22;21083;50.898;4.902;2023-02-25T02:30:45;4.50;99.90
20654;DHT22;21083;50.898;4.902;2023-02-25T02:33:24;4.60;99.90
20654;DHT22;21083;50.898;4.902;2023-02-25T02:35:59;4.60;99.90
20654;DHT22;21083;50.898;4.902;2023-02-25T02:38:34;4.60;99.90
20654;DHT22;21083;50.898;4.902;2023-02-25T02:41:05;4.60;99.90
20654;DHT22;21083;50.898;4.902;2023-02-25T02:43:39;4.50;99.90
20654;DHT22;21083;50.898;4.902;2023-02-25T02:46:14;4.50;99.90
20654;DHT22;21083;50.898;4.902;2023-02-25T02:48:49;4.70;99.90
20654;DHT22;21083;50.898;4.902;2023-02-25T02:51:23;4.60;99.90
20654;DHT22;21083;50.898;4.902;2023-02-25T02:53:55;4.60;99.90
20654;DHT22;21083;50.898;4.902;2023-02-25T02:56:25;4.60;99.90
20654;DHT22;21083;50.898;4.902;2023-02-25T02:58:58;4.50;99.90
20654;DHT22;21083;50.898;4.902;2023-02-25T03:01:28;4.40;99.90
20654;DHT22;21083;50.898;4.902;2023-02-25T03:04:00;4.30;99.90
20654;DHT22;21083;50.898;4.902;2023-02-25T03:06:31;4.20;99.90
20654;DHT22;21083;50.898;4.902;2023-02-25T03:09:03;4.20;99.90
20654;DHT22;21083;50.898;4.902;2023-02-25T03:11:31;4.20;99.90
20654;DHT22;21083;50.898;4.902;2023-02-25T03:13:58;4.10;99.90
20654;DHT22;21083;50.898;4.902;2023-02-25T03:16:27;4.10;99.90
20654;DHT22;21083;50.898;4.902;2023-02-25T03:19:02;4.20;99.90
20654;DHT22;21083;50.898;4.902;2023-02-25T03:21:35;4.10;99.90
20654;DHT22;21083;50.898;4.902;2023-02-25T03:24:07;4.20;99.90
20654;DHT22;21083;50.898;4.902;2023-02-25T03:26:37;4.30;99.90
20654;DHT22;21083;50.898;4.902;2023-02-25T03:29:13;4.30;99.90
20654;DHT22;21083;50.898;4.902;2023-02-25T03:31:44;4.30;99.90
20654;DHT22;21083;50.898;4.902;2023-02-25T03:34:17;4.40;99.90
20654;DHT22;21083;50.898;4.902;2023-02-25T03:36:48;4.30;99.90
20654;DHT22;21083;50.898;4.902;2023-02-25T03:39:19;4.40;99.90
20654;DHT22;21083;50.898;4.902;2023-02-25T03:41:50;4.50;99.90
20654;DHT22;21083;50.898;4.902;2023-02-25T03:44:21;4.30;99.90
20654;DHT22;21083;50.898;4.902;2023-02-25T03:46:50;4.30;99.90
20654;DHT22;21083;50.898;4.902;2023-02-25T03:49:22;4.20;99.90
20654;DHT22;21083;50.898;4.902;2023-02-25T03:51:52;4.10;99.90
20654;DHT22;21083;50.898;4.902;2023-02-25T03:54:21;4.10;99.90
20654;DHT22;21083;50.898;4.902;2023-02-25T03:56:49;4.20;99.90
20654;DHT22;21083;50.898;4.902;2023-02-25T03:59:17;4.30;99.90
20654;DHT22;21083;50.898;4.902;2023-02-25T04:01:46;4.30;99.90
20654;DHT22;21083;50.898;4.902;2023-02-25T04:04:15;4.40;99.90
20654;DHT22;21083;50.898;4.902;2023-02-25T04:06:43;4.30;99.90
20654;DHT22;21083;50.898;4.902;2023-02-25T04:09:10;4.40;99.90
20654;DHT22;21083;50.898;4.902;2023-02-25T04:11:37;4.40;99.90
20654;DHT22;21083;50.898;4.902;2023-02-25T04:14:04;4.50;99.90
20654;DHT22;21083;50.898;4.902;2023-02-25T04:16:31;4.40;99.90
20654;DHT22;21083;50.898;4.902;2023-02-25T04:18:58;4.40;99.90
20654;DHT22;21083;50.898;4.902;2023-02-25T04:21:27;4.20;99.90
20654;DHT22;21083;50.898;4.902;2023-02-25T04:23:56;4.20;99.90
20654;DHT22;21083;50.898;4.902;2023-02-25T04:26:23;4.10;99.90
20654;DHT22;21083;50.898;4.902;2023-02-25T04:28:50;4.10;99.90
20654;DHT22;21083;50.898;4.902;2023-02-25T04:31:17;4.10;99.90
20654;DHT22;21083;50.898;4.902;2023-02-25T04:33:44;4.00;99.90
20654;DHT22;21083;50.898;4.902;2023-02-25T04:36:28;4.00;99.90
20654;DHT22;21083;50.898;4.902;2023-02-25T04:39:00;4.00;99.90
20654;DHT22;21083;50.898;4.902;2023-02-25T04:41:29;4.10;99.90
20654;DHT22;21083;50.898;4.902;2023-02-25T04:43:56;4.20;99.90
20654;DHT22;21083;50.898;4.902;2023-02-25T04:46:24;4.10;99.90
20654;DHT22;21083;50.898;4.902;2023-02-25T04:48:51;4.10;99.90
20654;DHT22;21083;50.898;4.902;2023-02-25T04:51:18;4.10;99.90
20654;DHT22;21083;50.898;4.902;2023-02-25T04:53:45;4.20;99.90
20654;DHT22;21083;50.898;4.902;2023-02-25T04:56:14;4.20;99.90
20654;DHT22;21083;50.898;4.902;2023-02-25T04:58:41;4.20;99.90
20654;DHT22;21083;50.898;4.902;2023-02-25T05:01:09;4.30;99.90
20654;DHT22;21083;50.898;4.902;2023-02-25T05:03:37;4.20;99.90
20654;DHT22;21083;50.898;4.902;2023-02-25T05:06:04;4.20;99.90
20654;DHT22;21083;50.898;4.902;2023-02-25T05:08:32;4.10;99.90
20654;DHT22;21083;50.898;4.902;2023-02-25T05:10:59;4.10;99.90
20654;DHT22;21083;50.898;4.902;2023-02-25T05:13:28;4.10;99.90
20654;DHT22;21083;50.898;4.902;2023-02-25T05:16:03;4.10;99.90
20654;DHT22;21083;50.898;4.902;2023-02-25T05:18:30;4.20;99.90
20654;DHT22;21083;50.898;4.902;2023-02-25T05:20:57;4.30;99.90
20654;DHT22;21083;50.898;4.902;2023-02-25T05:23:25;4.30;99.90
20654;DHT22;21083;50.898;4.902;2023-02-25T05:25:52;4.40;99.90
20654;DHT22;21083;50.898;4.902;2023-02-25T05:28:19;4.30;99.90
20654;DHT22;21083;50.898;4.902;2023-02-25T05:30:47;4.30;99.90
20654;DHT22;21083;50.898;4.902;2023-02-25T05:33:16;4.40;99.90
20654;DHT22;21083;50.898;4.902;2023-02-25T05:35:43;4.50;99.90
20654;DHT22;21083;50.898;4.902;2023-02-25T05:38:10;4.50;99.90
20654;DHT22;21083;50.898;4.902;2023-02-25T05:40:38;4.40;99.90
20654;DHT22;21083;50.898;4.902;2023-02-25T05:43:05;4.50;99.90
20654;DHT22;21083;50.898;4.902;2023-02-25T05:45:33;4.50;99.90
20654;DHT22;21083;50.898;4.902;2023-02-25T05:48:02;4.40;99.90
20654;DHT22;21083;50.898;4.902;2023-02-25T05:50:29;4.40;99.90
20654;DHT22;21083;50.898;4.902;2023-02-25T05:52:56;4.60;99.90
20654;DHT22;21083;50.898;4.902;2023-02-25T05:55:23;4.60;99.90
20654;DHT22;21083;50.898;4.902;2023-02-25T05:57:51;4.70;99.90
20654;DHT22;21083;50.898;4.902;2023-02-25T06:00:18;4.70;99.90
20654;DHT22;21083;50.898;4.902;2023-02-25T06:02:46;4.90;99.90
20654;DHT22;21083;50.898;4.902;2023-02-25T06:05:15;4.80;99.90
20654;DHT22;21083;50.898;4.902;2023-02-25T06:07:42;4.80;99.90
20654;DHT22;21083;50.898;4.902;2023-02-25T06:10:10;4.70;99.90
20654;DHT22;21083;50.898;4.902;2023-02-25T06:12:37;4.70;99.90
20654;DHT22;21083;50.898;4.902;2023-02-25T06:15:04;4.70;99.90
20654;DHT22;21083;50.898;4.902;2023-02-25T06:17:31;4.80;99.90
20654;DHT22;21083;50.898;4.902;2023-02-25T06:19:58;4.80;99.90
20654;DHT22;21083;50.898;4.902;2023-02-25T06:22:27;4.90;99.90
20654;DHT22;21083;50.898;4.902;2023-02-25T06:24:54;4.80;99.90
20654;DHT22;21083;50.898;4.902;2023-02-25T06:27:20;4.80;99.90
20654;DHT22;21083;50.898;4.902;2023-02-25T06:29:47;4.80;99.90
20654;DHT22;21083;50.898;4.902;2023-02-25T06:32:15;4.80;99.90
20654;DHT22;21083;50.898;4.902;2023-02-25T06:34:42;4.80;99.90
20654;DHT22;21083;50.898;4.902;2023-02-25T06:37:09;4.80;99.90
20654;DHT22;21083;50.898;4.902;2023-02-25T06:39:37;4.80;99.90
20654;DHT22;21083;50.898;4.902;2023-02-25T06:42:08;4.80;99.90
20654;DHT22;21083;50.898;4.902;2023-02-25T06:44:35;4.70;99.90
20654;DHT22;21083;50.898;4.902;2023-02-25T06:47:01;4.70;99.90
20654;DHT22;21083;50.898;4.902;2023-02-25T06:49:29;4.70;99.90
20654;DHT22;21083;50.898;4.902;2023-02-25T06:51:56;4.80;99.90
20654;DHT22;21083;50.898;4.902;2023-02-25T06:54:26;5.00;99.90
20654;DHT22;21083;50.898;4.902;2023-02-25T06:56:54;5.00;99.90
20654;DHT22;21083;50.898;4.902;2023-02-25T06:59:21;4.90;99.90
20654;DHT22;21083;50.898;4.902;2023-02-25T07:01:49;5.00;99.90
20654;DHT22;21083;50.898;4.902;2023-02-25T07:04:17;5.00;99.90
20654;DHT22;21083;50.898;4.902;2023-02-25T07:06:44;4.90;99.90
20654;DHT22;21083;50.898;4.902;2023-02-25T07:09:11;4.80;99.90
20654;DHT22;21083;50.898;4.902;2023-02-25T07:11:38;4.70;99.90
20654;DHT22;21083;50.898;4.902;2023-02-25T07:14:06;4.80;99.90
20654;DHT22;21083;50.898;4.902;2023-02-25T07:16:33;4.90;99.90
20654;DHT22;21083;50.898;4.902;2023-02-25T07:19:00;5.00;99.90
20654;DHT22;21083;50.898;4.902;2023-02-25T07:21:28;5.00;99.90
20654;DHT22;21083;50.898;4.902;2023-02-25T07:23:55;4.90;99.90
20654;DHT22;21083;50.898;4.902;2023-02-25T07:26:23;4.90;99.90
20654;DHT22;21083;50.898;4.902;2023-02-25T07:28:53;4.90;99.90
20654;DHT22;21083;50.898;4.902;2023-02-25T07:31:22;4.80;99.90
20654;DHT22;21083;50.898;4.902;2023-02-25T07:33:49;4.90;99.90
20654;DHT22;21083;50.898;4.902;2023-02-25T07:36:16;5.00;99.90
20654;DHT22;21083;50.898;4.902;2023-02-25T07:38:43;5.10;99.90
20654;DHT22;21083;50.898;4.902;2023-02-25T07:41:12;5.30;99.90
20654;DHT22;21083;50.898;4.902;2023-02-25T07:43:40;5.40;99.90
20654;DHT22;21083;50.898;4.902;2023-02-25T07:46:07;5.40;99.90
20654;DHT22;21083;50.898;4.902;2023-02-25T07:48:36;5.40;99.90
20654;DHT22;21083;50.898;4.902;2023-02-25T07:51:04;5.40;99.90
20654;DHT22;21083;50.898;4.902;2023-02-25T07:53:31;5.40;99.90
20654;DHT22;21083;50.898;4.902;2023-02-25T07:55:58;5.40;99.90
20654;DHT22;21083;50.898;4.902;2023-02-25T07:58:25;5.40;99.90
20654;DHT22;21083;50.898;4.902;2023-02-25T08:00:53;5.50;99.90
20654;DHT22;21083;50.898;4.902;2023-02-25T08:03:20;5.50;99.90
20654;DHT22;21083;50.898;4.902;2023-02-25T08:05:51;5.40;99.90
20654;DHT22;21083;50.898;4.902;2023-02-25T08:08:19;5.40;99.90
20654;DHT22;21083;50.898;4.902;2023-02-25T08:10:46;5.50;99.90
20654;DHT22;21083;50.898;4.902;2023-02-25T08:13:13;5.70;99.90
20654;DHT22;21083;50.898;4.902;2023-02-25T08:15:41;5.70;99.90
20654;DHT22;21083;50.898;4.902;2023-02-25T08:18:08;5.70;99.90
20654;DHT22;21083;50.898;4.902;2023-02-25T08:20:35;5.60;99.90
20654;DHT22;21083;50.898;4.902;2023-02-25T08:23:03;5.70;99.90
20654;DHT22;21083;50.898;4.902;2023-02-25T08:25:30;5.70;99.90
20654;DHT22;21083;50.898;4.902;2023-02-25T08:27:58;5.80;99.90
20654;DHT22;21083;50.898;4.902;2023-02-25T08:30:25;5.90;99.90
20654;DHT22;21083;50.898;4.902;2023-02-25T08:32:53;6.00;99.90
20654;DHT22;21083;50.898;4.902;2023-02-25T08:35:22;6.10;99.90
20654;DHT22;21083;50.898;4.902;2023-02-25T08:37:50;6.10;99.90
20654;DHT22;21083;50.898;4.902;2023-02-25T08:40:18;6.20;99.90
20654;DHT22;21083;50.898;4.902;2023-02-25T08:42:45;6.20;99.90
20654;DHT22;21083;50.898;4.902;2023-02-25T08:45:12;6.30;99.90
20654;DHT22;21083;50.898;4.902;2023-02-25T08:47:39;6.30;99.90
20654;DHT22;21083;50.898;4.902;2023-02-25T08:50:07;6.50;99.90
20654;DHT22;21083;50.898;4.902;2023-02-25T08:52:34;6.60;99.90
20654;DHT22;21083;50.898;4.902;2023-02-25T08:55:02;6.50;99.90
20654;DHT22;21083;50.898;4.902;2023-02-25T08:57:31;6.70;99.90
20654;DHT22;21083;50.898;4.902;2023-02-25T08:59:58;6.40;99.90
20654;DHT22;21083;50.898;4.902;2023-02-25T09:02:25;6.50;99.90
20654;DHT22;21083;50.898;4.902;2023-02-25T09:04:52;6.40;99.90
20654;DHT22;21083;50.898;4.902;2023-02-25T09:07:19;6.40;99.90
20654;DHT22;21083;50.898;4.902;2023-02-25T09:09:46;6.50;99.90
20654;DHT22;21083;50.898;4.902;2023-02-25T09:12:13;6.70;99.90
20654;DHT22;21083;50.898;4.902;2023-02-25T09:14:42;7.00;99.90
20654;DHT22;21083;50.898;4.902;2023-02-25T09:17:09;7.10;99.90
20654;DHT22;21083;50.898;4.902;2023-02-25T09:19:36;7.30;99.90
20654;DHT22;21083;50.898;4.902;2023-02-25T09:22:04;7.40;99.90
20654;DHT22;21083;50.898;4.902;2023-02-25T09:24:32;7.50;99.90
20654;DHT22;21083;50.898;4.902;2023-02-25T09:26:59;7.50;99.90
20654;DHT22;21083;50.898;4.902;2023-02-25T09:29:30;7.50;99.90
20654;DHT22;21083;50.898;4.902;2023-02-25T09:31:59;7.50;99.90
20654;DHT22;21083;50.898;4.902;2023-02-25T09:34:26;7.60;99.90
20654;DHT22;21083;50.898;4.902;2023-02-25T09:36:53;7.60;99.90
20654;DHT22;21083;50.898;4.902;2023-02-25T09:39:20;7.70;99.90
20654;DHT22;21083;50.898;4.902;2023-02-25T09:41:49;7.70;99.90
20654;DHT22;21083;50.898;4.902;2023-02-25T09:44:19;7.80;99.90
20654;DHT22;21083;50.898;4.902;2023-02-25T09:46:50;7.90;99.90
20654;DHT22;21083;50.898;4.902;2023-02-25T09:49:25;8.00;99.90
20654;DHT22;21083;50.898;4.902;2023-02-25T09:51:59;8.00;99.90
20654;DHT22;21083;50.898;4.902;2023-02-25T09:54:31;8.20;99.90
20654;DHT22;21083;50.898;4.902;2023-02-25T09:57:01;8.10;99.90
20654;DHT22;21083;50.898;4.902;2023-02-25T09:59:30;8.10;99.90
20654;DHT22;21083;50.898;4.902;2023-02-25T10:02:00;8.10;99.90
20654;DHT22;21083;50.898;4.902;2023-02-25T10:04:37;8.30;99.90
20654;DHT22;21083;50.898;4.902;2023-02-25T10:07:14;8.30;99.90
20654;DHT22;21083;50.898;4.902;2023-02-25T10:09:49;8.40;99.90
20654;DHT22;21083;50.898;4.902;2023-02-25T10:12:27;8.50;99.90
20654;DHT22;21083;50.898;4.902;2023-02-25T10:15:17;8.70;99.90
20654;DHT22;21083;50.898;4.902;2023-02-25T10:20:49;8.80;99.90
20654;DHT22;21083;50.898;4.902;2023-02-25T10:23:28;8.80;99.90
20654;DHT22;21083;50.898;4.902;2023-02-25T10:26:04;8.80;99.90
20654;DHT22;21083;50.898;4.902;2023-02-25T10:28:34;9.00;99.90
20654;DHT22;21083;50.898;4.902;2023-02-25T10:31:05;9.40;99.90
20654;DHT22;21083;50.898;4.902;2023-02-25T10:33:35;9.60;99.90
20654;DHT22;21083;50.898;4.902;2023-02-25T10:36:07;10.00;99.90
20654;DHT22;21083;50.898;4.902;2023-02-25T10:38:37;10.10;99.90
20654;DHT22;21083;50.898;4.902;2023-02-25T10:41:06;10.00;99.90
20654;DHT22;21083;50.898;4.902;2023-02-25T10:43:34;9.70;99.90
20654;DHT22;21083;50.898;4.902;2023-02-25T10:46:05;9.70;99.90
20654;DHT22;21083;50.898;4.902;2023-02-25T10:48:35;9.70;99.90
20654;DHT22;21083;50.898;4.902;2023-02-25T10:51:09;9.90;99.90
20654;DHT22;21083;50.898;4.902;2023-02-25T10:53:37;9.90;99.90
20654;DHT22;21083;50.898;4.902;2023-02-25T10:56:05;9.70;99.90
20654;DHT22;21083;50.898;4.902;2023-02-25T10:58:38;9.50;99.90
20654;DHT22;21083;50.898;4.902;2023-02-25T11:01:11;9.60;99.90
20654;DHT22;21083;50.898;4.902;2023-02-25T11:03:51;9.70;99.90
20654;DHT22;21083;50.898;4.902;2023-02-25T11:06:24;9.50;99.90
20654;DHT22;21083;50.898;4.902;2023-02-25T11:08:53;9.60;99.90
20654;DHT22;21083;50.898;4.902;2023-02-25T11:11:22;9.70;99.90
20654;DHT22;21083;50.898;4.902;2023-02-25T11:13:55;10.20;99.90
20654;DHT22;21083;50.898;4.902;2023-02-25T11:16:25;10.70;99.90
20654;DHT22;21083;50.898;4.902;2023-02-25T11:18:55;11.10;99.90
20654;DHT22;21083;50.898;4.902;2023-02-25T11:21:32;11.40;99.90
20654;DHT22;21083;50.898;4.902;2023-02-25T11:24:02;11.60;99.90
20654;DHT22;21083;50.898;4.902;2023-02-25T11:26:32;11.80;99.90
20654;DHT22;21083;50.898;4.902;2023-02-25T11:29:01;12.00;99.90
20654;DHT22;21083;50.898;4.902;2023-02-25T11:31:34;12.50;99.90
20654;DHT22;21083;50.898;4.902;2023-02-25T11:34:05;12.70;99.90
20654;DHT22;21083;50.898;4.902;2023-02-25T11:36:36;12.60;99.90
20654;DHT22;21083;50.898;4.902;2023-02-25T11:39:06;12.20;99.90
20654;DHT22;21083;50.898;4.902;2023-02-25T11:41:39;11.80;99.90
20654;DHT22;21083;50.898;4.902;2023-02-25T11:44:28;11.30;99.90
20654;DHT22;21083;50.898;4.902;2023-02-25T11:47:05;11.00;99.90
20654;DHT22;21083;50.898;4.902;2023-02-25T11:49:54;10.80;99.90
20654;DHT22;21083;50.898;4.902;2023-02-25T11:52:31;10.60;99.90
20654;DHT22;21083;50.898;4.902;2023-02-25T11:55:09;10.80;99.90
20654;DHT22;21083;50.898;4.902;2023-02-25T11:57:51;10.80;99.90
20654;DHT22;21083;50.898;4.902;2023-02-25T12:00:25;11.10;99.90
20654;DHT22;21083;50.898;4.902;2023-02-25T12:03:09;11.60;99.90
20654;DHT22;21083;50.898;4.902;2023-02-25T12:05:53;11.70;99.90
20654;DHT22;21083;50.898;4.902;2023-02-25T12:08:46;12.00;99.90
20654;DHT22;21083;50.898;4.902;2023-02-25T12:11:40;12.30;99.90
20654;DHT22;21083;50.898;4.902;2023-02-25T12:17:41;11.80;99.90
20654;DHT22;21083;50.898;4.902;2023-02-25T12:26:47;10.70;99.90
20654;DHT22;21083;50.898;4.902;2023-02-25T12:29:35;10.10;99.90
20654;DHT22;21083;50.898;4.902;2023-02-25T12:32:22;9.70;99.90
20654;DHT22;21083;50.898;4.902;2023-02-25T12:38:11;9.30;99.90
20654;DHT22;21083;50.898;4.902;2023-02-25T12:41:01;9.20;99.90
20654;DHT22;21083;50.898;4.902;2023-02-25T12:43:38;9.20;99.90
20654;DHT22;21083;50.898;4.902;2023-02-25T12:46:20;9.30;99.90
20654;DHT22;21083;50.898;4.902;2023-02-25T12:49:20;9.30;99.90
20654;DHT22;21083;50.898;4.902;2023-02-25T12:52:04;9.20;99.90
20654;DHT22;21083;50.898;4.902;2023-02-25T12:57:45;10.70;99.90
20654;DHT22;21083;50.898;4.902;2023-02-25T13:03:29;12.60;99.90
20654;DHT22;21083;50.898;4.902;2023-02-25T13:06:23;13.50;99.90
20654;DHT22;21083;50.898;4.902;2023-02-25T13:09:20;14.10;99.90
20654;DHT22;21083;50.898;4.902;2023-02-25T13:14:56;15.10;99.90
20654;DHT22;21083;50.898;4.902;2023-02-25T13:17:36;15.80;99.90
20654;DHT22;21083;50.898;4.902;2023-02-25T13:20:44;16.00;99.90
20654;DHT22;21083;50.898;4.902;2023-02-25T13:23:37;15.20;99.90
20654;DHT22;21083;50.898;4.902;2023-02-25T13:26:36;14.80;99.90
20654;DHT22;21083;50.898;4.902;2023-02-25T13:29:18;15.10;99.90
20654;DHT22;21083;50.898;4.902;2023-02-25T13:31:54;15.80;99.90
20654;DHT22;21083;50.898;4.902;2023-02-25T13:34:30;16.30;99.90
20654;DHT22;21083;50.898;4.902;2023-02-25T13:37:23;16.50;99.90
20654;DHT22;21083;50.898;4.902;2023-02-25T13:40:14;16.50;99.90
20654;DHT22;21083;50.898;4.902;2023-02-25T13:43:11;15.90;99.90
20654;DHT22;21083;50.898;4.902;2023-02-25T13:45:55;16.40;99.90
20654;DHT22;21083;50.898;4.902;2023-02-25T13:48:47;16.90;99.90
20654;DHT22;21083;50.898;4.902;2023-02-25T13:51:50;17.40;99.90
20654;DHT22;21083;50.898;4.902;2023-02-25T13:57:29;18.60;99.90
20654;DHT22;21083;50.898;4.902;2023-02-25T14:03:21;19.20;99.90
20654;DHT22;21083;50.898;4.902;2023-02-25T14:06:02;18.30;99.90
20654;DHT22;21083;50.898;4.902;2023-02-25T14:08:51;17.30;99.90
20654;DHT22;21083;50.898;4.902;2023-02-25T14:11:33;16.20;99.90
20654;DHT22;21083;50.898;4.902;2023-02-25T14:14:23;15.30;99.90
20654;DHT22;21083;50.898;4.902;2023-02-25T14:17:12;14.30;99.90
20654;DHT22;21083;50.898;4.902;2023-02-25T14:19:48;13.70;99.90
20654;DHT22;21083;50.898;4.902;2023-02-25T14:22:33;13.00;99.90
20654;DHT22;21083;50.898;4.902;2023-02-25T14:25:15;12.30;99.90
20654;DHT22;21083;50.898;4.902;2023-02-25T14:27:50;11.70;99.90
20654;DHT22;21083;50.898;4.902;2023-02-25T14:30:23;11.20;99.90
20654;DHT22;21083;50.898;4.902;2023-02-25T14:33:08;10.80;99.90
20654;DHT22;21083;50.898;4.902;2023-02-25T14:35:59;10.40;99.90
20654;DHT22;21083;50.898;4.902;2023-02-25T14:38:36;10.00;99.90
20654;DHT22;21083;50.898;4.902;2023-02-25T14:41:26;9.80;99.90
20654;DHT22;21083;50.898;4.902;2023-02-25T14:43:56;9.60;99.90
20654;DHT22;21083;50.898;4.902;2023-02-25T14:46:30;9.50;99.90
20654;DHT22;21083;50.898;4.902;2023-02-25T14:48:59;9.50;99.90
20654;DHT22;21083;50.898;4.902;2023-02-25T15:00:57;9.80;99.90
20654;DHT22;21083;50.898;4.902;2023-02-25T15:03:48;9.90;99.90
20654;DHT22;21083;50.898;4.902;2023-02-25T15:06:36;10.00;99.90
20654;DHT22;21083;50.898;4.902;2023-02-25T15:09:29;10.00;99.90
20654;DHT22;21083;50.898;4.902;2023-02-25T15:12:15;10.30;99.90
20654;DHT22;21083;50.898;4.902;2023-02-25T15:18:18;13.70;99.90
20654;DHT22;21083;50.898;4.902;2023-02-25T15:20:49;15.20;99.90
20654;DHT22;21083;50.898;4.902;2023-02-25T15:23:17;16.40;99.90
20654;DHT22;21083;50.898;4.902;2023-02-25T15:25:49;16.70;99.90
20654;DHT22;21083;50.898;4.902;2023-02-25T15:28:38;15.90;99.90
20654;DHT22;21083;50.898;4.902;2023-02-25T15:37:30;15.60;99.90
20654;DHT22;21083;50.898;4.902;2023-02-25T15:42:48;17.60;99.90
20654;DHT22;21083;50.898;4.902;2023-02-25T15:45:39;18.50;99.90
20654;DHT22;21083;50.898;4.902;2023-02-25T15:48:30;19.20;99.90
20654;DHT22;21083;50.898;4.902;2023-02-25T15:50:58;19.30;99.90
20654;DHT22;21083;50.898;4.902;2023-02-25T15:53:54;19.60;99.90
20654;DHT22;21083;50.898;4.902;2023-02-25T15:56:25;18.90;99.90
20654;DHT22;21083;50.898;4.902;2023-02-25T15:58:56;17.50;99.90
20654;DHT22;21083;50.898;4.902;2023-02-25T16:01:38;16.30;99.90
20654;DHT22;21083;50.898;4.902;2023-02-25T16:07:11;14.30;99.90
20654;DHT22;21083;50.898;4.902;2023-02-25T16:09:43;13.30;99.90
20654;DHT22;21083;50.898;4.902;2023-02-25T16:12:13;12.40;99.90
20654;DHT22;21083;50.898;4.902;2023-02-25T16:14:40;12.00;99.90
20654;DHT22;21083;50.898;4.902;2023-02-25T16:17:14;11.60;99.90
20654;DHT22;21083;50.898;4.902;2023-02-25T16:19:42;11.30;99.90
20654;DHT22;21083;50.898;4.902;2023-02-25T16:22:14;11.10;99.90
20654;DHT22;21083;50.898;4.902;2023-02-25T16:24:46;11.10;99.90
20654;DHT22;21083;50.898;4.902;2023-02-25T16:27:20;11.10;99.90
20654;DHT22;21083;50.898;4.902;2023-02-25T16:29:55;10.90;99.90
20654;DHT22;21083;50.898;4.902;2023-02-25T16:32:33;10.70;99.90
20654;DHT22;21083;50.898;4.902;2023-02-25T16:35:07;10.50;99.90
20654;DHT22;21083;50.898;4.902;2023-02-25T16:37:41;10.20;99.90
20654;DHT22;21083;50.898;4.902;2023-02-25T16:40:15;10.10;99.90
20654;DHT22;21083;50.898;4.902;2023-02-25T16:42:44;10.00;99.90
20654;DHT22;21083;50.898;4.902;2023-02-25T16:45:22;9.90;99.90
20654;DHT22;21083;50.898;4.902;2023-02-25T16:47:54;9.80;99.90
20654;DHT22;21083;50.898;4.902;2023-02-25T16:50:22;9.50;99.90
20654;DHT22;21083;50.898;4.902;2023-02-25T16:52:50;9.30;99.90
20654;DHT22;21083;50.898;4.902;2023-02-25T16:55:21;9.30;99.90
20654;DHT22;21083;50.898;4.902;2023-02-25T16:58:03;9.20;99.90
20654;DHT22;21083;50.898;4.902;2023-02-25T17:00:31;9.00;99.90
20654;DHT22;21083;50.898;4.902;2023-02-25T17:02:59;9.00;99.90
20654;DHT22;21083;50.898;4.902;2023-02-25T17:05:29;8.90;99.90
20654;DHT22;21083;50.898;4.902;2023-02-25T17:07:58;8.80;99.90
20654;DHT22;21083;50.898;4.902;2023-02-25T17:10:30;8.80;99.90
20654;DHT22;21083;50.898;4.902;2023-02-25T17:13:00;8.70;99.90
20654;DHT22;21083;50.898;4.902;2023-02-25T17:15:30;8.60;99.90